Time;durP1;ratioP1;P1;durP2;ratioP2;P2;SDS_P1;SDS_P2;PMS_P1;PMS_P2;Temp;Humidity;BMP_temperature;BMP_pressure;BME280_temperature;BME280_humidity;BME280_pressure;Samples;Min_cycle;Max_cycle;Signal;HPM_P1;HPM_P2
2022/07/05 00:01:22;;;;;;;14.23;8.40;;;;;;;22.95;68.84;98961.88;1676175;85;21015;-84
2022/07/05 00:03:49;;;;;;;16.85;8.40;;;;;;;22.92;69.44;98970.09;1667300;85;20957;-84
2022/07/05 00:06:16;;;;;;;17.82;8.80;;;;;;;22.88;69.35;98962.02;1697271;84;20994;-83
2022/07/05 00:08:42;;;;;;;16.12;8.08;;;;;;;22.85;69.19;98950.31;1707663;84;21007;-85
2022/07/05 00:11:09;;;;;;;18.15;8.55;;;;;;;22.83;69.43;98965.01;1708552;84;21026;-84
2022/07/05 00:13:36;;;;;;;14.87;8.83;;;;;;;22.81;68.94;98968.26;1706352;84;20975;-85
2022/07/05 00:16:03;;;;;;;15.68;8.23;;;;;;;22.78;69.14;98968.97;1703179;84;21475;-85
2022/07/05 00:18:30;;;;;;;15.95;8.43;;;;;;;22.74;69.99;98965.74;1708287;84;20967;-85
2022/07/05 00:20:57;;;;;;;14.87;8.60;;;;;;;22.74;70.60;98960.44;1691237;84;20959;-85
2022/07/05 00:23:24;;;;;;;14.15;8.53;;;;;;;22.75;70.43;98961.28;1693241;84;20975;-83
2022/07/05 00:25:50;;;;;;;16.48;8.30;;;;;;;22.69;70.09;98952.48;1695716;84;20971;-84
2022/07/05 00:28:17;;;;;;;15.78;8.53;;;;;;;22.62;70.51;98956.06;1735845;83;21046;-85
2022/07/05 00:30:45;;;;;;;16.80;8.10;;;;;;;22.58;70.39;98960.78;1719390;83;21002;-84
2022/07/05 00:33:12;;;;;;;15.48;7.92;;;;;;;22.55;70.57;98962.81;1735950;82;21042;-85
2022/07/05 00:35:39;;;;;;;16.15;8.18;;;;;;;22.50;70.78;98963.64;1702022;82;21078;-84
2022/07/05 00:38:05;;;;;;;12.58;7.70;;;;;;;22.41;70.94;98958.57;1700626;84;20990;-84
2022/07/05 00:40:33;;;;;;;13.83;7.37;;;;;;;22.38;70.97;98961.44;1702917;84;20979;-84
2022/07/05 00:42:59;;;;;;;15.00;8.18;;;;;;;22.37;71.81;98957.13;1744165;82;20994;-85
2022/07/05 00:45:26;;;;;;;13.00;8.28;;;;;;;22.40;71.72;98959.52;1745388;82;20954;-85
2022/07/05 00:47:53;;;;;;;15.40;8.08;;;;;;;22.41;71.26;98962.05;1733327;83;21431;-85
2022/07/05 00:50:20;;;;;;;16.48;8.28;;;;;;;22.43;71.82;98957.48;1735400;82;20970;-85
2022/07/05 00:52:47;;;;;;;14.38;8.53;;;;;;;22.46;71.50;98956.89;1704976;83;21010;-85
2022/07/05 00:55:15;;;;;;;16.73;8.43;;;;;;;22.44;71.77;98955.67;1735332;83;20923;-85
2022/07/05 00:57:42;;;;;;;14.70;8.90;;;;;;;22.40;71.48;98959.06;1692937;84;20994;-83
2022/07/05 01:00:10;;;;;;;18.25;8.65;;;;;;;22.38;71.60;98957.47;1715975;83;20979;-85
2022/07/05 01:02:37;;;;;;;25.82;8.65;;;;;;;22.34;71.40;98948.07;1698704;84;20996;-84
2022/07/05 01:05:04;;;;;;;24.43;8.75;;;;;;;22.32;71.34;98955.28;1736099;83;21002;-84
2022/07/05 01:07:31;;;;;;;18.60;9.10;;;;;;;22.27;71.42;98959.63;1705393;84;20980;-85
2022/07/05 01:09:58;;;;;;;14.85;8.93;;;;;;;22.21;71.35;98955.59;1736328;83;21022;-84
2022/07/05 01:12:25;;;;;;;16.20;8.75;;;;;;;22.16;72.12;98967.03;1691979;84;21051;-83
2022/07/05 01:14:54;;;;;;;14.68;8.03;;;;;;;22.09;72.01;98964.95;1735618;83;21487;-82
2022/07/05 01:17:22;;;;;;;16.15;8.13;;;;;;;22.02;72.16;98966.73;1695710;84;21484;-84
2022/07/05 01:19:50;;;;;;;18.17;8.55;;;;;;;21.96;72.85;98968.48;1736406;83;21006;-84
2022/07/05 01:22:19;;;;;;;36.90;10.90;;;;;;;21.93;72.96;98964.77;1704012;84;21023;-84
2022/07/05 01:24:51;;;;;;;70.37;12.20;;;;;;;21.91;72.18;98964.52;1720447;83;21027;-83
2022/07/05 01:27:37;;;;;;;39.67;9.63;;;;;;;21.84;71.99;98964.10;1714998;83;20999;-83
2022/07/05 01:30:04;;;;;;;17.67;8.93;;;;;;;21.80;73.29;98968.77;1716468;84;20998;-84
2022/07/05 01:32:31;;;;;;;15.48;8.40;;;;;;;21.78;73.05;98968.05;1716521;82;21058;-84
2022/07/05 01:34:58;;;;;;;23.35;8.68;;;;;;;21.78;73.27;98963.23;1729176;81;21101;-83
2022/07/05 01:37:25;;;;;;;14.73;8.45;;;;;;;21.74;72.49;98962.61;1714263;83;20999;-85
2022/07/05 01:39:53;;;;;;;15.55;9.00;;;;;;;21.68;73.18;98959.09;1680816;85;21082;-85
2022/07/05 01:42:19;;;;;;;14.95;7.92;;;;;;;21.68;73.06;98966.20;1718755;82;21003;-85
2022/07/05 01:44:46;;;;;;;22.93;8.88;;;;;;;21.69;73.76;98969.22;1692061;84;20969;-84
2022/07/05 01:47:15;;;;;;;14.45;8.23;;;;;;;21.71;74.10;98957.56;1736792;83;20983;-85
2022/07/05 01:49:46;;;;;;;15.05;8.20;;;;;;;21.73;73.66;98960.10;1705944;84;21480;-83
2022/07/05 01:52:14;;;;;;;18.02;9.48;;;;;;;21.74;73.98;98963.94;1736760;83;21019;-85
2022/07/05 01:54:41;;;;;;;17.20;10.05;;;;;;;21.74;73.23;98969.71;1697254;84;21003;-85
2022/07/05 01:57:08;;;;;;;20.20;9.68;;;;;;;21.70;74.03;98969.57;1726925;83;20938;-84
2022/07/05 01:59:36;;;;;;;16.95;9.65;;;;;;;21.66;73.52;98975.56;1691638;84;21033;-84
2022/07/05 02:02:05;;;;;;;20.10;10.05;;;;;;;21.64;73.56;98980.95;1712986;83;20978;-85
2022/07/05 02:04:35;;;;;;;20.77;9.25;;;;;;;21.63;74.53;98977.95;1699634;84;20952;-83
2022/07/05 02:07:07;;;;;;;17.02;8.90;;;;;;;21.63;74.24;98980.61;1735659;83;20950;-85
2022/07/05 02:09:34;;;;;;;14.83;9.50;;;;;;;21.62;74.29;98977.58;1736708;82;20999;-84
2022/07/05 02:12:03;;;;;;;17.50;9.63;;;;;;;21.62;73.98;98980.70;1703641;84;20979;-85
2022/07/05 02:14:31;;;;;;;17.07;8.98;;;;;;;21.58;73.69;98976.11;1733989;83;21007;-85
2022/07/05 02:16:58;;;;;;;18.02;8.75;;;;;;;21.56;73.89;98971.90;1692119;83;21035;-84
2022/07/05 02:19:25;;;;;;;15.78;7.50;;;;;;;21.54;74.27;98982.58;1736693;83;21009;-84
2022/07/05 02:21:53;;;;;;;13.10;7.75;;;;;;;21.51;73.41;98979.34;1702537;83;20964;-84
2022/07/05 02:24:21;;;;;;;16.93;7.42;;;;;;;21.50;73.60;98978.95;1735041;83;21022;-84
2022/07/05 02:26:50;;;;;;;14.75;7.33;;;;;;;21.49;74.02;98966.67;1721809;82;21027;-83
2022/07/05 02:29:17;;;;;;;12.93;7.50;;;;;;;21.49;73.57;98975.47;1706771;84;21039;-84
2022/07/05 02:31:44;;;;;;;14.50;8.18;;;;;;;21.49;73.57;98977.25;1683684;84;21534;-85
2022/07/05 02:34:12;;;;;;;38.30;8.43;;;;;;;21.50;74.00;98981.11;1707949;84;20909;-85
2022/07/05 02:36:39;;;;;;;48.17;9.48;;;;;;;21.50;74.20;98978.47;1757817;81;20995;-84
2022/07/05 02:39:08;;;;;;;69.40;9.95;;;;;;;21.52;74.18;98973.91;1761281;81;21019;-85
2022/07/05 02:41:35;;;;;;;53.98;9.33;;;;;;;21.53;73.81;98972.97;1760002;82;20991;-85
2022/07/05 02:44:02;;;;;;;29.52;7.65;;;;;;;21.55;73.86;98976.84;1751378;82;21002;-84
2022/07/05 02:46:29;;;;;;;20.30;7.00;;;;;;;21.54;74.02;98979.94;1759146;82;20975;-84
2022/07/05 02:48:57;;;;;;;18.77;7.22;;;;;;;21.56;73.70;98984.64;1756334;82;20960;-84
2022/07/05 02:51:25;;;;;;;18.25;7.58;;;;;;;21.53;73.53;98975.62;1752734;80;20970;-83
2022/07/05 02:53:52;;;;;;;13.38;7.58;;;;;;;21.52;73.40;98977.88;1747716;82;20951;-85
2022/07/05 02:56:18;;;;;;;16.23;7.00;;;;;;;21.52;73.56;98982.34;1760614;80;20999;-84
2022/07/05 02:58:46;;;;;;;17.23;7.42;;;;;;;21.47;74.11;98982.67;1754694;81;20991;-84
2022/07/05 03:01:13;;;;;;;16.15;8.03;;;;;;;21.47;74.06;98985.31;1738466;82;21019;-85
2022/07/05 03:03:40;;;;;;;18.92;7.97;;;;;;;21.43;73.52;98986.02;1750472;81;20943;-85
2022/07/05 03:06:07;;;;;;;16.23;8.53;;;;;;;21.40;74.25;98986.67;1730849;83;20961;-85
2022/07/05 03:08:35;;;;;;;11.65;8.03;;;;;;;21.39;74.40;98985.00;1688195;83;21039;-85
2022/07/05 03:11:02;;;;;;;15.20;7.80;;;;;;;21.36;74.21;98979.42;1684587;85;21123;-85
2022/07/05 03:13:29;;;;;;;11.40;7.37;;;;;;;21.32;73.62;98985.05;1709889;83;20913;-84
2022/07/05 03:15:57;;;;;;;15.20;6.92;;;;;;;21.28;74.04;98988.88;1731983;83;20956;-83
2022/07/05 03:18:24;;;;;;;12.85;6.83;;;;;;;21.21;73.91;98991.11;1687456;84;20955;-84
2022/07/05 03:20:52;;;;;;;12.45;6.40;;;;;;;21.13;73.44;98991.66;1735045;83;21010;-84
2022/07/05 03:23:20;;;;;;;12.58;6.80;;;;;;;21.05;74.12;98996.63;1705085;84;20976;-85
2022/07/05 03:25:48;;;;;;;14.63;7.30;;;;;;;21.00;74.97;99005.34;1701225;84;20985;-84
2022/07/05 03:28:15;;;;;;;17.98;6.58;;;;;;;20.94;74.66;99003.97;1703915;84;20984;-84
2022/07/05 03:30:43;;;;;;;12.05;6.15;;;;;;;20.86;74.54;99007.14;1699427;84;21024;-85
2022/07/05 03:33:11;;;;;;;12.13;6.60;;;;;;;20.82;74.87;99006.98;1731217;83;21090;-85
2022/07/05 03:35:39;;;;;;;15.95;6.80;;;;;;;20.81;74.28;99009.72;1692600;84;21029;-85
2022/07/05 03:38:06;;;;;;;12.28;6.30;;;;;;;20.80;74.22;99006.24;1683945;85;21011;-85
2022/07/05 03:40:33;;;;;;;15.43;6.28;;;;;;;20.79;74.45;99012.94;1716902;84;21053;-84
2022/07/05 03:43:00;;;;;;;12.93;6.17;;;;;;;20.80;74.35;99008.88;1736361;83;20955;-85
2022/07/05 03:45:28;;;;;;;17.07;6.15;;;;;;;20.81;74.18;99011.91;1707675;82;21070;-84
2022/07/05 03:47:59;;;;;;;12.35;7.12;;;;;;;20.86;74.44;99019.03;1738559;79;21018;-84
2022/07/05 03:50:27;;;;;;;10.55;6.70;;;;;;;20.95;74.41;99024.17;1723530;80;20988;-85
2022/07/05 03:52:54;;;;;;;14.63;7.95;;;;;;;21.04;74.36;99024.00;1700622;83;21075;-85
2022/07/05 03:55:23;;;;;;;14.33;7.40;;;;;;;21.10;74.03;99016.96;1711231;84;21006;-85
2022/07/05 03:57:51;;;;;;;19.05;8.33;;;;;;;21.15;74.23;99021.47;1710486;84;20998;-84
2022/07/05 04:00:18;;;;;;;14.45;7.70;;;;;;;21.19;73.73;99017.66;1686409;83;20932;-84
2022/07/05 04:02:46;;;;;;;14.83;8.43;;;;;;;21.22;74.00;99020.55;1717189;81;21022;-84
2022/07/05 04:05:14;;;;;;;16.27;8.35;;;;;;;21.25;73.88;99025.15;1723103;83;21002;-84
2022/07/05 04:07:54;;;;;;;15.00;8.13;;;;;;;21.28;73.57;99021.44;1698713;84;20997;-84
2022/07/05 04:10:24;;;;;;;17.50;8.43;;;;;;;21.34;73.94;99028.09;1712960;81;20994;-84
2022/07/05 04:12:51;;;;;;;21.93;10.10;;;;;;;21.41;73.20;99030.69;1682223;85;21089;-83
2022/07/05 04:15:18;;;;;;;16.50;9.70;;;;;;;21.47;73.33;99031.60;1687710;84;21929;-85
2022/07/05 04:17:52;;;;;;;20.48;9.70;;;;;;;21.54;74.18;99030.19;1737399;82;21002;-83
2022/07/05 04:20:21;;;;;;;17.67;8.55;;;;;;;21.64;74.33;99036.51;1748030;80;21013;-84
2022/07/05 04:22:49;;;;;;;18.40;8.53;;;;;;;21.75;73.50;99034.92;1722468;83;20954;-84
2022/07/05 04:25:16;;;;;;;19.90;8.55;;;;;;;21.85;73.71;99042.55;1695081;83;21038;-84
2022/07/05 04:27:49;;;;;;;20.92;8.63;;;;;;;21.97;73.94;99030.23;1720022;83;20995;-84
2022/07/05 04:30:17;;;;;;;15.83;8.10;;;;;;;22.08;73.51;99027.62;1714996;84;20998;-84
2022/07/05 04:32:45;;;;;;;17.80;8.43;;;;;;;22.22;73.70;99031.89;1708594;84;21114;-85
2022/07/05 04:35:13;;;;;;;12.30;8.13;;;;;;;22.30;73.47;99032.68;1715878;81;20991;-85
2022/07/05 04:37:41;;;;;;;18.60;8.58;;;;;;;22.35;73.30;99026.09;1712439;84;21006;-84
2022/07/05 04:40:12;;;;;;;15.70;7.72;;;;;;;22.44;73.26;99034.68;1683761;85;21011;-85
2022/07/05 04:42:40;;;;;;;15.70;8.10;;;;;;;22.53;72.91;99033.62;1707041;84;20998;-85
2022/07/05 04:45:09;;;;;;;13.20;7.92;;;;;;;22.60;72.46;99033.50;1688857;84;20979;-85
2022/07/05 04:47:36;;;;;;;15.63;7.83;;;;;;;22.66;72.11;99032.19;1663274;85;21015;-83
2022/07/05 04:50:05;;;;;;;15.23;7.97;;;;;;;22.62;71.61;99027.60;1698030;84;20973;-84
2022/07/05 04:52:33;;;;;;;11.12;7.37;;;;;;;22.63;71.38;99033.28;1708140;84;21542;-85
2022/07/05 04:54:59;;;;;;;10.95;7.37;;;;;;;22.60;70.93;99031.72;1688531;85;21018;-85
2022/07/05 04:57:26;;;;;;;14.63;6.97;;;;;;;22.58;70.89;99026.15;1688477;84;20970;-84
2022/07/05 04:59:53;;;;;;;15.98;7.10;;;;;;;22.64;70.76;99025.22;1708891;84;21015;-84
2022/07/05 05:02:20;;;;;;;14.95;7.97;;;;;;;22.68;70.40;99023.64;1710844;84;21010;-85
2022/07/05 05:04:47;;;;;;;19.52;7.50;;;;;;;22.68;69.96;99027.63;1711827;84;20983;-84
2022/07/05 05:07:14;;;;;;;13.35;7.35;;;;;;;22.66;69.78;99027.77;1640720;86;21036;-83
2022/07/05 05:09:40;;;;;;;13.72;7.28;;;;;;;22.67;69.72;99025.46;1688703;85;20994;-85
2022/07/05 05:12:08;;;;;;;15.05;6.78;;;;;;;22.70;69.79;99019.94;1711663;84;21549;-85
2022/07/05 05:14:35;;;;;;;16.15;7.35;;;;;;;22.79;69.51;99027.16;1689238;85;21038;-84
2022/07/05 05:17:03;;;;;;;9.68;6.78;;;;;;;22.84;69.23;99030.31;1708103;84;20975;-86
2022/07/05 05:19:30;;;;;;;13.58;7.65;;;;;;;22.88;69.16;99026.09;1712070;84;21070;-85
2022/07/05 05:21:57;;;;;;;13.43;7.95;;;;;;;22.93;68.96;99026.10;1689472;85;21014;-86
2022/07/05 05:24:26;;;;;;;16.00;7.62;;;;;;;22.97;68.98;99028.88;1709329;84;21133;-85
2022/07/05 05:26:54;;;;;;;15.78;7.78;;;;;;;23.02;69.00;99021.45;1689390;85;20983;-85
2022/07/05 05:29:21;;;;;;;15.30;7.35;;;;;;;23.04;68.90;99025.32;1711600;84;20967;-85
2022/07/05 05:31:48;;;;;;;13.70;7.25;;;;;;;23.09;69.08;99009.87;1685980;85;20975;-86
2022/07/05 05:34:15;;;;;;;17.60;6.75;;;;;;;23.18;69.00;99013.15;1711739;84;21022;-86
2022/07/05 05:36:42;;;;;;;11.53;6.87;;;;;;;23.26;68.94;99006.38;1685227;84;21081;-85
2022/07/05 05:39:10;;;;;;;16.20;6.60;;;;;;;23.32;68.82;99008.08;1713621;83;21086;-86
2022/07/05 05:41:37;;;;;;;14.60;7.08;;;;;;;23.45;68.86;99007.94;1717512;82;20982;-85
2022/07/05 05:44:04;;;;;;;12.15;6.90;;;;;;;23.58;68.72;99004.67;1740828;82;21034;-86
2022/07/05 05:46:31;;;;;;;13.80;6.83;;;;;;;23.73;68.43;99009.20;1726833;82;21013;-86
2022/07/05 05:49:00;;;;;;;13.40;6.37;;;;;;;23.88;68.10;99001.86;1719565;83;21036;-84
2022/07/05 05:51:26;;;;;;;15.23;6.97;;;;;;;24.01;67.32;99007.86;1734400;83;20994;-85
2022/07/05 05:53:55;;;;;;;18.48;7.35;;;;;;;24.13;67.00;99015.30;1730647;83;20987;-85
2022/07/05 05:56:22;;;;;;;15.25;7.33;;;;;;;24.26;66.63;99020.42;1733266;83;20986;-85
2022/07/05 05:58:49;;;;;;;17.20;8.63;;;;;;;24.39;66.41;99023.75;1734983;82;21534;-84
2022/07/05 06:01:16;;;;;;;14.38;7.53;;;;;;;24.52;66.20;99019.59;1736266;83;20990;-85
2022/07/05 06:03:42;;;;;;;15.25;8.00;;;;;;;24.61;65.82;99016.17;1737811;83;20962;-86
2022/07/05 06:06:09;;;;;;;13.53;7.28;;;;;;;24.71;65.19;99014.05;1737684;82;20967;-86
2022/07/05 06:08:38;;;;;;;12.85;6.90;;;;;;;24.77;64.49;99024.16;1735258;82;20970;-85
2022/07/05 06:11:05;;;;;;;13.70;7.53;;;;;;;24.85;64.08;99020.38;1737612;83;20986;-84
2022/07/05 06:13:32;;;;;;;14.93;7.53;;;;;;;24.91;63.94;99027.83;1735785;83;20967;-84
2022/07/05 06:15:59;;;;;;;17.17;7.35;;;;;;;25.00;63.29;99023.53;1736477;83;20951;-85
2022/07/05 06:18:26;;;;;;;13.88;7.42;;;;;;;25.04;63.50;99026.27;1734268;82;20982;-85
2022/07/05 06:20:53;;;;;;;13.93;7.40;;;;;;;25.10;62.90;99020.42;1737345;83;21014;-85
2022/07/05 06:23:20;;;;;;;14.13;7.03;;;;;;;25.17;62.69;99026.91;1735245;83;20942;-86
2022/07/05 06:25:47;;;;;;;11.85;7.33;;;;;;;25.30;62.32;99024.53;1736711;82;21002;-84
2022/07/05 06:28:16;;;;;;;14.93;7.45;;;;;;;25.40;61.92;99014.77;1735254;83;20971;-85
2022/07/05 06:30:43;;;;;;;14.20;7.25;;;;;;;25.48;61.18;99008.27;1714871;83;21034;-85
2022/07/05 06:33:10;;;;;;;10.55;6.25;;;;;;;25.58;60.67;99012.30;1736651;83;21018;-86
2022/07/05 06:35:37;;;;;;;14.07;6.37;;;;;;;25.67;60.76;99009.33;1736946;82;21009;-85
2022/07/05 06:38:09;;;;;;;17.70;7.00;;;;;;;25.80;59.54;99015.21;1736776;83;20982;-85
2022/07/05 06:40:39;;;;;;;14.10;7.12;;;;;;;25.85;59.88;99020.15;1718275;80;21094;-86
2022/07/05 06:43:11;;;;;;;13.93;7.10;;;;;;;25.91;59.35;99016.46;1701602;83;21120;-86
2022/07/05 06:45:39;;;;;;;18.52;11.57;;;;;;;25.95;59.07;99000.56;1706913;83;20993;-85
2022/07/05 06:48:11;;;;;;;13.20;7.53;;;;;;;26.06;59.22;99010.72;1699835;84;21001;-85
2022/07/05 06:50:41;;;;;;;18.57;7.70;;;;;;;26.16;58.92;99004.91;1689419;83;20952;-85
2022/07/05 06:53:09;;;;;;;16.97;7.20;;;;;;;26.27;58.96;98999.44;1709663;83;21010;-84
2022/07/05 06:55:37;;;;;;;15.32;7.05;;;;;;;26.39;58.42;98992.97;1706056;83;21055;-86
2022/07/05 06:58:07;;;;;;;12.78;7.33;;;;;;;26.51;58.20;99002.16;1709915;83;21007;-85
2022/07/05 07:00:34;;;;;;;13.08;7.12;;;;;;;26.57;57.44;99005.09;1675901;83;21044;-86
2022/07/05 07:03:07;;;;;;;14.53;6.65;;;;;;;26.63;57.39;98993.05;1702370;84;20994;-86
2022/07/05 07:05:36;;;;;;;13.18;6.70;;;;;;;26.75;56.68;98993.72;1689205;83;21002;-87
2022/07/05 07:10:50;;;;;;;14.18;6.90;;;;;;;26.81;56.10;98983.80;1706837;84;21046;-85
2022/07/05 07:13:20;;;;;;;14.95;7.08;;;;;;;26.82;55.59;98977.97;1706937;84;21024;-86
2022/07/05 07:15:49;;;;;;;11.90;7.35;;;;;;;26.89;55.79;98981.75;1670609;84;21085;-86
2022/07/05 07:18:18;;;;;;;14.30;7.55;;;;;;;26.97;55.68;98979.19;1701870;84;21020;-86
2022/07/05 07:20:47;;;;;;;14.83;7.33;;;;;;;27.01;55.36;98978.41;1674622;84;21050;-85
2022/07/05 07:23:16;;;;;;;16.87;7.37;;;;;;;27.07;55.75;98977.32;1699673;83;21048;-87
2022/07/05 07:25:49;;;;;;;11.40;6.50;;;;;;;27.17;55.58;98977.28;1694563;85;21021;-87
2022/07/05 07:28:19;;;;;;;10.85;7.08;;;;;;;27.28;55.20;98977.63;1674898;84;21061;-88
2022/07/05 07:33:33;;;;;;;15.35;7.72;;;;;;;27.41;54.05;98974.09;1608156;88;21136;-89
2022/07/05 07:36:00;;;;;;;13.93;6.85;;;;;;;27.45;54.41;98969.31;1594361;89;21051;-85
2022/07/05 07:38:27;;;;;;;13.88;7.42;;;;;;;27.48;54.20;98971.19;1607167;88;21086;-86
2022/07/05 07:40:55;;;;;;;12.88;6.78;;;;;;;27.55;53.76;98966.08;1657977;86;21099;-86
2022/07/05 07:43:22;;;;;;;12.80;7.30;;;;;;;27.60;53.71;98963.81;1638261;86;21047;-86
2022/07/05 07:45:49;;;;;;;14.18;7.83;;;;;;;27.70;53.41;98953.90;1640045;87;21062;-87
2022/07/05 07:48:16;;;;;;;22.05;8.00;;;;;;;27.83;52.95;98956.69;1613323;89;21028;-87
2022/07/05 07:50:43;;;;;;;14.07;8.13;;;;;;;27.90;52.91;98956.47;1607524;88;21067;-87
2022/07/05 07:53:10;;;;;;;15.58;8.18;;;;;;;27.96;52.69;98952.67;1634810;87;21052;-86
2022/07/05 07:55:36;;;;;;;11.70;7.33;;;;;;;28.07;52.88;98945.41;1639499;87;21033;-86
2022/07/05 07:58:03;;;;;;;15.45;7.33;;;;;;;28.20;52.86;98943.19;1636641;87;20961;-85
2022/07/05 08:00:33;;;;;;;20.40;8.53;;;;;;;28.35;51.65;98942.11;1605378;88;21196;-85
2022/07/05 08:03:00;;;;;;;13.85;7.87;;;;;;;28.44;52.35;98944.37;1638505;86;21015;-86
2022/07/05 08:05:27;;;;;;;13.32;8.10;;;;;;;28.51;51.88;98938.27;1625183;88;21034;-86
2022/07/05 08:07:54;;;;;;;12.47;7.67;;;;;;;28.63;51.85;98935.31;1641572;87;21012;-88
2022/07/05 08:10:21;;;;;;;13.80;8.05;;;;;;;28.75;51.77;98934.07;1628600;87;21036;-86
2022/07/05 08:12:48;;;;;;;12.53;8.18;;;;;;;28.87;51.81;98930.12;1630162;87;21038;-86
2022/07/05 08:15:17;;;;;;;15.70;7.72;;;;;;;29.00;51.55;98932.34;1634450;87;21075;-86
2022/07/05 08:21:30;;;;;;;15.43;7.60;;;;;;;29.13;51.45;98930.09;1630813;87;21038;-87
2022/07/05 08:22:57;;;;;;;13.48;7.40;;;;;;;29.31;50.37;98929.16;1630069;88;21032;-87
2022/07/05 08:25:24;;;;;;;10.85;7.03;;;;;;;29.34;50.25;98931.48;1612140;87;21043;-87
2022/07/05 08:27:51;;;;;;;17.87;7.80;;;;;;;29.40;50.46;98924.14;1606270;88;20977;-86
2022/07/05 08:30:18;;;;;;;12.10;6.97;;;;;;;29.53;49.99;98929.88;1616725;88;21446;-85
2022/07/05 08:32:46;;;;;;;10.40;7.10;;;;;;;29.61;49.15;98921.53;1616514;88;21048;-87
2022/07/05 08:35:17;;;;;;;13.95;7.20;;;;;;;29.63;49.63;98926.22;1612799;88;21094;-86
2022/07/05 08:37:44;;;;;;;15.20;6.58;;;;;;;29.76;48.85;98919.89;1625139;87;21099;-87
2022/07/05 08:40:18;;;;;;;15.43;7.20;;;;;;;29.85;48.71;98920.75;1593534;89;21007;-87
2022/07/05 08:42:56;;;;;;;11.68;7.03;;;;;;;29.88;48.06;98903.84;1612519;88;21099;-86
2022/07/05 08:45:30;;;;;;;12.18;6.35;;;;;;;29.90;46.00;98903.17;1619346;87;21038;-89
2022/07/05 08:48:06;;;;;;;27.07;18.95;;;;;;;29.96;47.90;98903.48;1582959;90;21065;-86
2022/07/05 08:50:41;;;;;;;11.75;7.50;;;;;;;30.07;47.83;98901.31;1599824;89;21125;-85
2022/07/05 08:53:15;;;;;;;10.65;6.45;;;;;;;30.18;47.22;98892.08;1606435;89;20967;-87
2022/07/05 08:55:43;;;;;;;10.68;6.33;;;;;;;30.28;47.15;98888.73;1608132;88;21001;-86
2022/07/05 08:58:13;;;;;;;12.18;6.53;;;;;;;30.45;46.95;98896.78;1586664;89;21030;-88
2022/07/05 09:00:42;;;;;;;11.00;6.28;;;;;;;30.62;47.22;98890.84;1588932;90;21026;-85
2022/07/05 09:03:16;;;;;;;11.68;5.33;;;;;;;30.80;46.42;98884.77;1617447;85;20992;-86
2022/07/05 09:05:45;;;;;;;8.75;5.65;;;;;;;30.96;45.51;98887.06;1597642;88;20993;-87
2022/07/05 09:08:19;;;;;;;9.70;5.87;;;;;;;31.09;44.95;98886.84;1603827;89;20998;-86
2022/07/05 09:10:44;;;;;;;9.50;6.12;;;;;;;31.22;44.69;98890.31;1630281;87;21083;-86
2022/07/05 09:13:14;;;;;;;12.88;5.83;;;;;;;31.33;44.29;98883.69;1599476;89;20995;-87
2022/07/05 09:15:45;;;;;;;10.50;5.90;;;;;;;31.36;43.51;98887.38;1624750;87;21152;-87
2022/07/05 09:18:36;;;;;;;15.90;6.00;;;;;;;31.40;42.86;98881.16;1584905;89;21104;-86
2022/07/05 09:21:25;;;;;;;12.73;5.75;;;;;;;31.53;43.25;98883.27;1625841;88;21097;-88
2022/07/05 09:24:05;;;;;;;12.55;5.28;;;;;;;31.63;41.28;98880.66;1545221;91;21010;-89
2022/07/05 09:26:47;;;;;;;9.78;5.50;;;;;;;31.73;41.26;98882.28;1606134;88;21044;-89
2022/07/05 09:29:19;;;;;;;11.03;5.33;;;;;;;31.84;40.46;98885.90;1618273;87;21060;-88
2022/07/05 09:31:52;;;;;;;8.23;5.08;;;;;;;32.06;40.23;98886.92;1619399;87;21103;-87
2022/07/05 09:34:20;;;;;;;9.18;5.03;;;;;;;32.19;39.65;98880.41;1598275;89;21087;-88
2022/07/05 09:37:06;;;;;;;8.65;5.05;;;;;;;32.34;39.19;98870.18;1599368;90;21076;-88
2022/07/05 09:39:40;;;;;;;12.10;4.62;;;;;;;32.40;37.61;98865.41;1577425;90;21060;-88
2022/07/05 09:42:23;;;;;;;10.03;4.70;;;;;;;32.37;38.85;98864.41;1627766;88;21013;-88
2022/07/05 09:44:59;;;;;;;6.95;4.50;;;;;;;32.43;39.10;98866.36;1576972;90;21064;-88
2022/07/05 09:47:30;;;;;;;13.18;4.70;;;;;;;32.59;38.30;98864.03;1554483;90;21096;-87
2022/07/05 09:50:03;;;;;;;8.78;5.03;;;;;;;32.69;38.45;98864.61;1602028;89;21067;-86
2022/07/05 09:52:40;;;;;;;9.23;4.37;;;;;;;32.82;38.04;98852.65;1596596;89;20948;-86
2022/07/05 09:55:20;;;;;;;6.08;4.17;;;;;;;32.99;37.53;98861.36;1595305;83;21098;-88
2022/07/05 09:57:58;;;;;;;9.23;4.00;;;;;;;33.09;35.67;98855.72;1634410;86;20998;-87
2022/07/05 10:00:24;;;;;;;5.78;3.87;;;;;;;33.17;35.77;98849.38;1659012;82;21045;-90
2022/07/05 10:03:03;;;;;;;6.87;4.10;;;;;;;33.23;35.72;98845.92;1650303;85;21047;-90
2022/07/05 10:05:48;;;;;;;8.73;4.00;;;;;;;33.34;35.81;98845.41;1656825;82;20935;-89
2022/07/05 10:08:24;;;;;;;6.55;3.62;;;;;;;33.51;31.60;98847.34;1656059;85;21066;-89
2022/07/05 10:10:57;;;;;;;9.35;4.03;;;;;;;33.64;33.05;98848.00;1648564;84;21044;-90
2022/07/05 10:16:16;;;;;;;6.53;3.25;;;;;;;33.68;31.15;98838.50;1701340;83;21092;-89
2022/07/05 10:18:53;;;;;;;4.72;3.15;;;;;;;33.70;30.73;98837.80;1684815;85;20985;-89
2022/07/05 10:21:28;;;;;;;4.90;3.30;;;;;;;33.78;31.11;98836.30;1678733;85;21030;-89
2022/07/05 10:24:02;;;;;;;8.03;3.80;;;;;;;33.85;31.37;98837.20;1687859;84;21026;-88
2022/07/05 10:26:42;;;;;;;7.65;2.55;;;;;;;33.99;30.27;98821.14;1703656;80;21094;-89
2022/07/05 10:29:14;;;;;;;4.70;2.40;;;;;;;34.14;26.98;98815.62;1697835;84;20969;-86
2022/07/05 10:31:49;;;;;;;5.22;3.02;;;;;;;34.32;27.66;98817.84;1680057;82;21024;-89
2022/07/05 10:34:31;;;;;;;6.42;2.90;;;;;;;34.35;27.62;98814.77;1662408;83;21022;-89
2022/07/05 10:37:08;;;;;;;8.35;3.67;;;;;;;34.37;27.77;98812.17;1687415;85;20994;-88
2022/07/05 10:39:52;;;;;;;7.45;3.55;;;;;;;34.47;27.50;98808.59;1665826;84;21040;-89
2022/07/05 10:42:38;;;;;;;5.00;3.12;;;;;;;34.59;28.37;98806.16;1687861;82;21037;-88
2022/07/05 10:45:38;;;;;;;7.58;3.62;;;;;;;34.74;27.60;98795.27;1687901;82;21042;-87
2022/07/05 10:48:31;;;;;;;6.42;3.40;;;;;;;34.83;28.01;98795.38;1687380;82;21031;-88
2022/07/05 10:51:22;;;;;;;8.03;3.20;;;;;;;34.95;27.91;98794.80;1664889;85;21036;-91
2022/07/05 10:54:04;;;;;;;4.92;2.60;;;;;;;35.07;28.09;98791.81;1622429;83;21060;-89
2022/07/05 10:56:40;;;;;;;6.47;3.22;;;;;;;35.20;27.42;98778.38;1701844;82;21063;-88
2022/07/05 10:59:33;;;;;;;9.60;3.37;;;;;;;35.36;26.77;98784.42;1674046;81;21108;-86
2022/07/05 11:05:49;;;;;;;7.65;3.62;;;;;;;35.74;27.03;98777.08;1704098;80;21059;-89
2022/07/05 11:08:42;;;;;;;6.28;3.45;;;;;;;35.89;27.29;98767.38;1718057;79;21082;31
2022/07/05 11:14:40;;;;;;;5.10;3.77;;;;;;;36.14;26.71;98761.61;1623209;82;21059;31
2022/07/05 11:20:54;;;;;;;8.08;3.50;;;;;;;36.29;25.85;98753.78;1649090;85;21058;-88
2022/07/05 11:47:08;;;;;;;6.70;2.85;;;;;;;36.80;21.70;98754.33;1669159;83;21072;-90
2022/07/05 12:13:10;;;;;;;6.62;2.90;;;;;;;38.06;21.33;98720.53;1668181;84;21062;-89
2022/07/05 12:15:39;;;;;;;5.25;2.90;;;;;;;38.40;20.58;98723.14;1670897;84;20996;-87
2022/07/05 12:18:08;;;;;;;5.53;3.05;;;;;;;38.42;20.11;98723.77;1663007;84;20983;-89
2022/07/05 12:20:37;;;;;;;7.65;2.98;;;;;;;38.64;20.75;98711.06;1653812;84;21052;-89
2022/07/05 12:23:04;;;;;;;5.80;3.40;;;;;;;38.90;20.63;98707.98;1668715;84;21533;-88
2022/07/05 12:25:34;;;;;;;5.67;4.08;;;;;;;39.18;21.22;98709.25;1669133;84;21150;-91
2022/07/05 12:28:04;;;;;;;6.95;4.25;;;;;;;39.55;22.01;98711.78;1673095;84;21531;-90
2022/07/05 12:30:33;;;;;;;12.40;4.00;;;;;;;39.82;22.46;98708.59;1662572;84;20954;-91
2022/07/05 12:33:10;;;;;;;10.93;4.28;;;;;;;40.16;22.42;98710.45;1633145;86;21035;-87
2022/07/05 12:35:43;;;;;;;11.12;4.12;;;;;;;40.50;22.24;98707.88;1663379;84;21130;-85
2022/07/05 12:38:14;;;;;;;9.05;3.92;;;;;;;40.77;22.21;98708.70;1632980;86;21010;-88
2022/07/05 12:40:44;;;;;;;5.37;3.40;;;;;;;41.13;21.67;98699.78;1628124;86;21021;-89
2022/07/05 12:43:17;;;;;;;7.60;3.58;;;;;;;41.52;21.58;98702.58;1642773;86;21013;-88
2022/07/05 12:46:06;;;;;;;6.83;3.80;;;;;;;42.02;21.48;98696.27;1667734;84;20989;-87
2022/07/05 12:48:38;;;;;;;5.28;3.37;;;;;;;42.58;21.13;98701.58;1669430;84;21066;-86